Time;durP1;ratioP1;P1;durP2;ratioP2;P2;SDS_P1;SDS_P2;PMS_P1;PMS_P2;Temp;Humidity;BMP_temperature;BMP_pressure;BME280_temperature;BME280_humidity;BME280_pressure;Samples;Min_cycle;Max_cycle;Signal;HPM_P1;HPM_P2
2022/08/22 00:01:57;;;;;;;6.82;5.68;;;20.40;99.90;;;;;;4909263;29;20051;-48
2022/08/22 00:05:01;;;;;;;8.18;5.50;;;20.40;99.90;;;;;;4943001;29;20038;-47
2022/08/22 00:07:57;;;;;;;5.97;4.97;;;20.50;99.90;;;;;;4928473;29;20107;-47
2022/08/22 00:10:33;;;;;;;6.50;4.72;;;20.50;99.90;;;;;;4943240;29;20055;-48
2022/08/22 00:13:11;;;;;;;6.32;5.20;;;20.50;99.90;;;;;;4942784;29;20547;-47
2022/08/22 00:15:47;;;;;;;5.68;5.05;;;20.50;99.90;;;;;;4942927;29;20534;-48
2022/08/22 00:18:34;;;;;;;8.55;5.45;;;20.50;99.90;;;;;;4934449;29;20074;-48
2022/08/22 00:21:17;;;;;;;8.73;5.25;;;20.60;99.90;;;;;;4970151;28;20033;-49
2022/08/22 00:24:03;;;;;;;8.55;5.15;;;20.60;99.90;;;;;;5028753;28;20035;-48
2022/08/22 00:26:43;;;;;;;7.05;5.40;;;20.50;99.90;;;;;;5019172;28;20405;-47
2022/08/22 00:29:17;;;;;;;8.50;5.40;;;20.60;99.90;;;;;;5020703;28;20454;-48
2022/08/22 00:31:50;;;;;;;4.82;4.30;;;20.60;99.90;;;;;;5018419;28;20511;-47
2022/08/22 00:34:36;;;;;;;5.88;5.28;;;20.60;99.90;;;;;;5020114;28;20048;-49
2022/08/22 00:37:19;;;;;;;8.20;5.13;;;20.60;99.90;;;;;;5020774;28;20032;-48
2022/08/22 00:40:07;;;;;;;6.07;4.93;;;20.60;99.90;;;;;;5021177;28;20038;-47
2022/08/22 00:42:57;;;;;;;6.82;4.90;;;20.60;99.90;;;;;;5024912;28;20034;-48
2022/08/22 00:45:29;;;;;;;4.88;4.32;;;20.70;99.90;;;;;;5012165;28;20462;-47
2022/08/22 00:48:25;;;;;;;6.32;4.97;;;20.60;99.90;;;;;;5021615;28;20041;-48
2022/08/22 00:51:08;;;;;;;6.90;5.13;;;20.60;99.90;;;;;;5031349;28;20045;-49
2022/08/22 00:53:43;;;;;;;8.63;4.93;;;20.60;99.90;;;;;;5028771;28;20036;-49
2022/08/22 00:56:27;;;;;;;6.97;5.70;;;20.60;99.90;;;;;;5020901;28;20037;-46
2022/08/22 00:59:22;;;;;;;5.65;4.72;;;20.60;99.90;;;;;;5027521;28;20046;-46
2022/08/22 01:02:30;;;;;;;6.35;5.05;;;20.60;99.90;;;;;;5028783;28;20041;-49
2022/08/22 01:05:11;;;;;;;7.18;5.22;;;20.60;99.90;;;;;;5025428;28;20041;-50
2022/08/22 01:07:54;;;;;;;7.85;5.18;;;20.60;99.90;;;;;;5025526;28;20030;-51
2022/08/22 01:10:41;;;;;;;6.75;4.50;;;20.60;99.90;;;;;;5015109;28;20117;-50
2022/08/22 01:13:16;;;;;;;5.85;4.45;;;20.60;99.90;;;;;;5028860;28;20092;-50
2022/08/22 01:15:42;;;;;;;7.03;4.80;;;20.60;99.90;;;;;;5019250;28;20038;-49
2022/08/22 01:18:34;;;;;;;5.88;4.93;;;20.50;99.90;;;;;;5017379;28;20030;-48
2022/08/22 01:21:31;;;;;;;8.52;5.63;;;20.50;99.90;;;;;;4953526;29;20031;-49
2022/08/22 01:24:21;;;;;;;6.75;4.95;;;20.60;99.90;;;;;;4953331;29;20523;-48
2022/08/22 01:27:08;;;;;;;6.57;5.28;;;20.60;99.90;;;;;;4953449;29;20045;-51
2022/08/22 01:29:55;;;;;;;5.68;5.07;;;20.70;99.90;;;;;;4953167;29;20150;-47
2022/08/22 01:32:29;;;;;;;5.20;4.68;;;20.60;99.90;;;;;;4953942;29;20039;-48
2022/08/22 01:34:58;;;;;;;5.03;4.60;;;20.50;99.90;;;;;;4953333;29;20071;-47
2022/08/22 01:37:49;;;;;;;9.85;5.43;;;20.60;99.90;;;;;;4953138;29;20479;-47
2022/08/22 01:40:18;;;;;;;7.57;5.25;;;20.60;99.90;;;;;;4953210;29;20047;-48
2022/08/22 01:43:04;;;;;;;10.13;5.20;;;20.50;99.90;;;;;;4953356;29;20717;-48
2022/08/22 01:45:51;;;;;;;7.28;5.10;;;20.50;99.90;;;;;;4952952;29;20547;-48
2022/08/22 01:48:40;;;;;;;7.30;5.40;;;20.50;99.90;;;;;;4952845;29;20066;-47
2022/08/22 01:51:12;;;;;;;6.50;4.95;;;20.50;99.90;;;;;;4953657;29;20507;-50
2022/08/22 01:53:51;;;;;;;8.05;5.15;;;20.50;99.90;;;;;;4953100;29;20043;-49
2022/08/22 01:56:21;;;;;;;6.22;5.30;;;20.50;99.90;;;;;;4952789;29;20047;-50
2022/08/22 01:59:02;;;;;;;6.28;5.68;;;20.50;99.90;;;;;;5008973;28;20103;-49
2022/08/22 02:01:42;;;;;;;13.55;5.88;;;20.50;99.90;;;;;;5021006;28;20533;-48
2022/08/22 02:04:13;;;;;;;7.70;4.75;;;20.60;99.90;;;;;;5020780;28;20033;-49
2022/08/22 02:06:58;;;;;;;5.47;4.85;;;20.60;99.90;;;;;;5024952;28;20034;-49
2022/08/22 02:09:51;;;;;;;9.13;5.25;;;20.60;99.90;;;;;;5024943;28;20436;-48
2022/08/22 02:12:40;;;;;;;5.40;4.90;;;20.60;99.90;;;;;;5026632;28;20040;-48
2022/08/22 02:15:24;;;;;;;6.38;5.78;;;20.50;99.90;;;;;;5024633;28;20033;-48
2022/08/22 02:18:16;;;;;;;7.63;5.82;;;20.50;99.90;;;;;;4996729;28;20081;-50
2022/08/22 02:20:47;;;;;;;5.70;4.82;;;20.50;99.90;;;;;;5024963;28;20025;-47
2022/08/22 02:23:31;;;;;;;6.25;5.65;;;20.50;99.90;;;;;;5023050;28;20044;-48
2022/08/22 02:26:00;;;;;;;10.52;5.78;;;20.50;99.90;;;;;;5023688;28;20101;-49
2022/08/22 02:28:46;;;;;;;5.85;5.35;;;20.40;99.90;;;;;;5023247;28;20034;-50
2022/08/22 02:31:33;;;;;;;5.85;5.25;;;20.30;99.90;;;;;;5022431;28;20034;-50
2022/08/22 02:34:01;;;;;;;5.50;5.00;;;;;;;;;;5022185;28;20063;-49
2022/08/22 02:36:38;;;;;;;5.47;4.95;;;20.40;99.90;;;;;;5017335;28;20395;-47
2022/08/22 02:39:27;;;;;;;5.82;4.50;;;20.10;99.90;;;;;;5021577;28;20030;-46
2022/08/22 02:42:05;;;;;;;5.40;4.82;;;20.00;99.90;;;;;;5020080;28;20037;-49
2022/08/22 02:44:37;;;;;;;6.60;4.72;;;20.00;99.90;;;;;;5025012;28;20614;-47
2022/08/22 02:47:11;;;;;;;7.82;4.70;;;20.00;99.90;;;;;;5027751;28;20041;-48
2022/08/22 02:50:05;;;;;;;5.43;4.40;;;20.00;99.90;;;;;;4971353;28;20520;-49
2022/08/22 02:52:48;;;;;;;6.53;5.00;;;20.00;99.90;;;;;;5026475;28;20393;-48
2022/08/22 02:55:32;;;;;;;5.03;3.97;;;19.90;99.90;;;;;;5024340;28;20037;-48
2022/08/22 02:58:23;;;;;;;5.40;3.90;;;19.80;99.90;;;;;;5014981;28;20038;-47
2022/08/22 03:00:58;;;;;;;6.35;3.97;;;19.70;99.90;;;;;;4978058;28;20481;-46
2022/08/22 03:03:34;;;;;;;7.05;4.18;;;19.70;99.90;;;;;;5020289;28;20474;-48
2022/08/22 03:06:21;;;;;;;5.45;4.35;;;19.70;99.90;;;;;;5023998;28;20034;-49
2022/08/22 03:09:25;;;;;;;5.15;4.50;;;19.80;99.90;;;;;;5021297;28;20041;-50
2022/08/22 03:12:06;;;;;;;7.65;4.45;;;19.90;99.90;;;;;;4991081;28;20045;-48
2022/08/22 03:15:04;;;;;;;6.20;4.13;;;19.90;99.90;;;;;;5020818;28;20048;-47
2022/08/22 03:17:49;;;;;;;5.47;3.90;;;19.90;99.90;;;;;;4951351;29;20039;-49
2022/08/22 03:20:35;;;;;;;4.90;4.18;;;19.90;99.90;;;;;;4951447;29;20035;-48
2022/08/22 03:23:08;;;;;;;7.32;4.10;;;19.90;99.90;;;;;;4951261;29;20035;-49
2022/08/22 03:25:59;;;;;;;5.30;3.90;;;19.90;99.90;;;;;;4951273;29;20561;-47
2022/08/22 03:28:40;;;;;;;8.68;4.10;;;19.90;99.90;;;;;;4951073;29;20051;-49
2022/08/22 03:31:11;;;;;;;6.45;3.72;;;19.90;99.90;;;;;;4951996;29;20035;-47
2022/08/22 03:33:37;;;;;;;5.20;3.80;;;19.80;99.90;;;;;;4951565;29;20035;-47
2022/08/22 03:36:11;;;;;;;4.15;3.75;;;20.00;99.90;;;;;;4935003;29;20130;-47
2022/08/22 03:38:43;;;;;;;7.95;4.30;;;20.00;99.90;;;;;;4931739;29;20043;-49
2022/08/22 03:41:11;;;;;;;4.20;3.80;;;19.70;99.90;;;;;;4931920;29;20082;-47
2022/08/22 03:43:37;;;;;;;5.68;4.10;;;19.70;99.90;;;;;;4931956;29;20046;-47
2022/08/22 03:46:14;;;;;;;6.38;3.53;;;19.80;99.90;;;;;;4932513;29;20044;-48
2022/08/22 03:48:49;;;;;;;4.55;4.00;;;20.20;99.90;;;;;;4931741;29;20051;-48
2022/08/22 03:51:45;;;;;;;8.27;4.32;;;20.20;99.90;;;;;;4931838;29;20036;-48
2022/08/22 03:54:26;;;;;;;3.88;3.40;;;19.90;99.90;;;;;;4962871;28;20113;-48
2022/08/22 03:57:21;;;;;;;4.95;4.07;;;20.30;99.90;;;;;;4962858;28;20051;-47
2022/08/22 04:00:35;;;;;;;7.47;3.92;;;20.20;99.90;;;;;;5015611;28;20040;-50
2022/08/22 04:03:13;;;;;;;4.55;3.72;;;;;;;;;;5012190;28;20489;-48
2022/08/22 04:05:39;;;;;;;4.65;3.88;;;;;;;;;;5020193;28;20041;-48
2022/08/22 04:08:08;;;;;;;6.50;4.20;;;;;;;;;;4999150;28;20100;-50
2022/08/22 04:10:53;;;;;;;4.75;3.80;;;;;;;;;;5039459;28;20049;-48
2022/08/22 04:13:28;;;;;;;5.63;4.30;;;19.50;99.90;;;;;;5041855;28;20109;-48
2022/08/22 04:16:05;;;;;;;10.00;4.38;;;19.80;99.90;;;;;;5038546;28;20029;-48
2022/08/22 04:18:43;;;;;;;5.03;3.95;;;20.60;99.90;;;;;;5030204;28;20045;-47
2022/08/22 04:21:16;;;;;;;4.28;3.60;;;19.80;99.90;;;;;;5044294;28;20028;-49
2022/08/22 04:24:07;;;;;;;4.35;3.47;;;19.80;99.90;;;;;;5045252;28;20483;-47
2022/08/22 04:26:48;;;;;;;8.88;3.95;;;19.70;99.90;;;;;;5043696;28;20035;-48
2022/08/22 04:29:23;;;;;;;5.18;4.30;;;20.30;99.90;;;;;;5045178;28;20083;-47
2022/08/22 04:32:02;;;;;;;5.75;4.03;;;19.80;99.90;;;;;;5045058;28;20029;-48
2022/08/22 04:34:38;;;;;;;5.25;4.00;;;;;;;;;;5012205;28;20041;-48
2022/08/22 04:37:12;;;;;;;4.93;4.13;;;20.00;99.90;;;;;;5044708;28;20033;-47
2022/08/22 04:39:56;;;;;;;5.15;3.85;;;19.60;99.90;;;;;;5037235;28;20045;-48
2022/08/22 04:42:30;;;;;;;6.13;4.65;;;19.70;99.90;;;;;;5044497;28;20091;-48
2022/08/22 04:45:04;;;;;;;4.00;3.60;;;20.50;99.90;;;;;;5029395;28;20371;-47
2022/08/22 04:47:36;;;;;;;5.25;3.97;;;;;;;;;;5052455;28;20037;-48
2022/08/22 04:50:15;;;;;;;4.35;3.90;;;19.70;99.90;;;;;;5007748;28;20051;-49
2022/08/22 04:53:23;;;;;;;7.28;4.57;;;19.90;99.90;;;;;;5007588;28;20045;-48
2022/08/22 04:56:25;;;;;;;5.45;4.38;;;20.30;99.90;;;;;;4989101;28;20045;-48
2022/08/22 04:58:57;;;;;;;;;;;20.00;99.90;;;;;;4982497;28;20054;-47
2022/08/22 05:01:36;;;;;;;4.85;4.15;;;20.40;99.90;;;;;;4986867;28;20259;-48
2022/08/22 05:04:18;;;;;;;6.55;4.53;;;20.00;99.90;;;;;;4977788;28;20035;-47
2022/08/22 05:06:49;;;;;;;5.40;3.80;;;19.50;99.90;;;;;;4970171;28;20047;-48
2022/08/22 05:09:19;;;;;;;4.65;4.18;;;20.10;99.90;;;;;;4972881;28;20059;-48
2022/08/22 05:11:50;;;;;;;4.70;4.20;;;20.20;99.90;;;;;;4972798;28;20050;-47
2022/08/22 05:14:35;;;;;;;8.13;4.20;;;20.10;99.90;;;;;;4971608;28;20035;-47
2022/08/22 05:17:03;;;;;;;4.30;3.50;;;;;;;;;;4956467;28;20037;-47
2022/08/22 05:19:34;;;;;;;7.55;4.13;;;;;;;;;;4973493;28;20125;-48
2022/08/22 05:22:01;;;;;;;4.30;3.90;;;20.30;99.90;;;;;;4972774;28;20041;-49
2022/08/22 05:24:52;;;;;;;4.80;3.90;;;20.40;99.90;;;;;;4956398;28;20038;-49
2022/08/22 05:27:22;;;;;;;5.50;3.70;;;20.50;99.90;;;;;;4972397;28;20502;-48
2022/08/22 05:29:54;;;;;;;5.93;3.53;;;20.60;99.90;;;;;;4972796;28;20047;-48
2022/08/22 05:32:29;;;;;;;8.30;3.92;;;20.40;99.90;;;;;;4987978;28;20040;-48
2022/08/22 05:35:00;;;;;;;5.05;3.50;;;20.40;99.90;;;;;;5031141;28;20509;-47
2022/08/22 05:37:47;;;;;;;5.13;4.13;;;20.50;99.90;;;;;;5013516;28;20050;-47
2022/08/22 05:40:23;;;;;;;6.07;4.45;;;20.60;99.90;;;;;;5031822;28;20040;-47
2022/08/22 05:42:50;;;;;;;4.20;3.35;;;20.50;99.90;;;;;;5031107;28;20037;-48
2022/08/22 05:45:18;;;;;;;6.38;3.70;;;20.60;99.90;;;;;;5036709;28;20025;-47
2022/08/22 05:48:01;;;;;;;8.23;3.78;;;20.70;99.90;;;;;;4991513;28;20040;-48
2022/08/22 05:50:38;;;;;;;4.32;3.40;;;20.80;99.90;;;;;;5042901;28;20041;-46
2022/08/22 05:53:17;;;;;;;5.80;3.45;;;21.00;99.90;;;;;;5048418;28;20108;-49
2022/08/22 05:56:03;;;;;;;6.43;3.90;;;20.90;99.90;;;;;;5036446;28;20026;-49
2022/08/22 05:58:38;;;;;;;5.70;3.50;;;21.00;99.90;;;;;;5021220;28;20051;-49
2022/08/22 06:01:28;;;;;;;4.18;3.67;;;21.00;99.90;;;;;;5047903;28;20473;-48
2022/08/22 06:04:19;;;;;;;6.50;3.78;;;21.20;99.90;;;;;;5010138;28;20034;-48
2022/08/22 06:07:00;;;;;;;4.68;3.25;;;21.30;99.90;;;;;;5005131;28;20075;-47
2022/08/22 06:09:47;;;;;;;4.18;3.35;;;21.40;99.90;;;;;;5008778;28;20042;-48
2022/08/22 06:12:23;;;;;;;5.78;3.53;;;21.40;99.90;;;;;;5001203;28;20113;-48
2022/08/22 06:14:59;;;;;;;5.82;3.28;;;21.40;99.90;;;;;;5009318;28;20034;-48
2022/08/22 06:17:41;;;;;;;3.80;3.28;;;21.50;99.90;;;;;;4977640;28;20498;-49
2022/08/22 06:20:12;;;;;;;8.90;4.97;;;21.50;99.90;;;;;;5010098;28;20045;-49
2022/08/22 06:22:46;;;;;;;5.05;3.20;;;21.50;99.90;;;;;;4999261;28;20141;-47
2022/08/22 06:25:17;;;;;;;4.57;2.97;;;21.40;99.90;;;;;;4999227;28;20031;-48
2022/08/22 06:27:46;;;;;;;17.53;11.00;;;21.50;99.90;;;;;;5005438;28;20049;-49
2022/08/22 06:30:15;;;;;;;7.68;4.07;;;21.60;99.90;;;;;;5003118;28;20072;-47
2022/08/22 06:32:47;;;;;;;12.13;8.80;;;21.70;99.90;;;;;;5009554;28;20033;-48
2022/08/22 06:35:28;;;;;;;8.35;4.65;;;21.80;99.90;;;;;;4996154;28;20046;-48
2022/08/22 06:37:58;;;;;;;14.60;10.73;;;21.50;99.90;;;;;;5009816;28;20109;-47
2022/08/22 06:40:26;;;;;;;20.25;17.35;;;21.70;99.90;;;;;;5001171;28;20407;-46
2022/08/22 06:42:53;;;;;;;5.97;3.03;;;21.70;99.90;;;;;;5045062;28;20107;-48
2022/08/22 06:45:29;;;;;;;6.25;3.47;;;21.70;99.90;;;;;;5048762;28;20029;-47
2022/08/22 06:48:04;;;;;;;2.90;2.67;;;21.80;99.90;;;;;;5044236;28;20061;-48
2022/08/22 06:50:36;;;;;;;4.65;3.40;;;21.70;99.90;;;;;;5047259;28;20500;-48
2022/08/22 06:53:06;;;;;;;;;;;21.80;99.90;;;;;;4988893;28;20073;-46
2022/08/22 06:55:34;;;;;;;4.05;2.88;;;21.90;99.90;;;;;;4986280;28;20393;-47
2022/08/22 06:58:15;;;;;;;4.75;3.65;;;;;;;;;;4976588;28;20101;-47
2022/08/22 07:00:43;;;;;;;4.88;3.55;;;22.00;99.90;;;;;;4970156;28;20135;-49
2022/08/22 07:03:17;;;;;;;6.35;3.40;;;21.90;99.90;;;;;;4980732;28;20141;-47
2022/08/22 07:05:43;;;;;;;4.00;3.42;;;21.70;99.90;;;;;;4979446;28;20065;-48
2022/08/22 07:08:17;;;;;;;3.78;3.38;;;21.60;99.90;;;;;;4978793;28;20038;-47
2022/08/22 07:10:44;;;;;;;4.55;3.38;;;;;;;;;;4978958;28;20046;-47
2022/08/22 07:13:18;;;;;;;9.15;3.85;;;21.60;99.90;;;;;;4979818;28;20038;-49
2022/08/22 07:15:52;;;;;;;6.20;3.95;;;21.70;99.90;;;;;;4976538;28;20031;-48
2022/08/22 07:18:20;;;;;;;2.90;2.40;;;21.90;99.90;;;;;;4989016;28;20049;-47
2022/08/22 07:20:51;;;;;;;4.35;2.78;;;21.80;99.90;;;;;;4982983;28;20034;-47
2022/08/22 07:23:41;;;;;;;8.30;3.10;;;21.80;99.90;;;;;;4991828;28;20048;-48
2022/08/22 07:26:19;;;;;;;3.67;2.15;;;21.70;99.90;;;;;;5045227;28;20033;-47
2022/08/22 07:28:48;;;;;;;7.25;2.30;;;21.90;99.90;;;;;;5043399;28;20072;-49
2022/08/22 07:31:31;;;;;;;2.67;2.10;;;22.00;99.90;;;;;;5042102;28;20029;-47
2022/08/22 07:34:06;;;;;;;3.88;2.08;;;21.90;99.90;;;;;;5016111;28;20095;-47
2022/08/22 07:36:53;;;;;;;2.15;1.95;;;;;;;;;;5027107;28;20040;-48
2022/08/22 07:39:19;;;;;;;5.53;2.20;;;;;;;;;;5042106;28;20096;-46
2022/08/22 07:41:58;;;;;;;7.32;2.13;;;;;;;;;;5042273;28;20035;-48
2022/08/22 07:44:30;;;;;;;5.85;2.05;;;22.10;99.90;;;;;;5041975;28;20083;-46
2022/08/22 07:46:59;;;;;;;;;;;22.30;99.90;;;;;;5049567;28;20044;-47
2022/08/22 07:49:58;;;;;;;5.85;2.00;;;22.10;99.90;;;;;;5043043;28;19913;-48
2022/08/22 07:52:36;;;;;;;3.20;2.08;;;22.00;99.90;;;;;;5043357;28;20039;-48
2022/08/22 07:55:11;;;;;;;5.45;2.30;;;21.90;99.90;;;;;;5037634;28;20072;-48
2022/08/22 07:57:42;;;;;;;3.20;2.00;;;22.10;99.90;;;;;;5006208;28;20172;-46
2022/08/22 08:00:15;;;;;;;4.32;2.15;;;22.10;99.90;;;;;;5038128;28;20059;-46
2022/08/22 08:02:52;;;;;;;8.52;2.65;;;22.10;99.90;;;;;;4977368;28;20044;-44
2022/08/22 08:05:21;;;;;;;2.75;1.92;;;22.10;99.90;;;;;;5014367;28;20077;-47
2022/08/22 08:07:47;;;;;;;2.63;2.25;;;21.80;99.90;;;;;;5012024;28;20048;-49
2022/08/22 08:10:18;;;;;;;5.05;2.00;;;21.60;99.90;;;;;;5039815;28;20041;-47
2022/08/22 08:12:54;;;;;;;2.58;1.98;;;21.80;99.90;;;;;;5008942;28;20040;-49
2022/08/22 08:15:22;;;;;;;2.97;2.00;;;22.00;99.90;;;;;;5006755;28;20083;-50
2022/08/22 08:17:58;;;;;;;10.32;3.22;;;22.00;99.90;;;;;;5040575;28;20021;-47
2022/08/22 08:20:26;;;;;;;4.28;2.22;;;22.10;99.90;;;;;;5040169;28;20697;-46
2022/08/22 08:22:54;;;;;;;3.83;1.83;;;22.30;99.90;;;;;;5039141;28;20032;-47
2022/08/22 08:25:27;;;;;;;6.00;2.10;;;22.20;99.90;;;;;;5043089;28;20060;-46
2022/08/22 08:30:54;;;;;;;2.92;1.52;;;21.90;99.90;;;;;;5041147;28;20055;-47
2022/08/22 08:33:25;;;;;;;4.85;1.83;;;22.00;99.90;;;;;;5045132;28;20167;-46
2022/08/22 08:36:22;;;;;;;2.50;1.70;;;22.10;99.90;;;;;;5045208;28;20040;-48
2022/08/22 08:39:13;;;;;;;2.38;1.80;;;22.20;99.90;;;;;;5037042;28;20029;-47
2022/08/22 08:42:06;;;;;;;4.32;2.20;;;22.30;99.90;;;;;;5036747;28;20030;-46
2022/08/22 08:44:36;;;;;;;5.82;2.35;;;22.10;99.90;;;;;;5037495;28;20059;-47
2022/08/22 08:47:07;;;;;;;5.13;1.80;;;22.20;99.90;;;;;;5042183;28;20041;-48
2022/08/22 08:50:00;;;;;;;2.95;2.10;;;22.30;99.90;;;;;;5035448;28;20040;-47
2022/08/22 08:52:30;;;;;;;11.02;2.45;;;22.30;99.90;;;;;;5040365;28;20084;-48
2022/08/22 08:55:10;;;;;;;5.15;2.40;;;22.40;99.90;;;;;;5042252;28;20480;-46
2022/08/22 08:57:48;;;;;;;6.95;2.80;;;;;;;;;;5037393;28;20045;-46
2022/08/22 09:00:41;;;;;;;5.93;2.22;;;21.80;99.90;;;;;;5022259;28;20850;-47
2022/08/22 09:03:35;;;;;;;6.05;2.40;;;21.60;99.90;;;;;;5018838;28;20073;-47
2022/08/22 09:06:34;;;;;;;4.85;2.30;;;21.50;99.90;;;;;;5023035;28;20388;-46
2022/08/22 09:09:29;;;;;;;3.67;2.50;;;21.60;99.90;;;;;;5018629;28;20081;-49
2022/08/22 09:12:09;;;;;;;4.05;2.10;;;21.60;99.90;;;;;;5013853;28;20049;-49
2022/08/22 09:14:50;;;;;;;4.15;2.10;;;21.50;99.90;;;;;;5023911;28;20184;-48
2022/08/22 09:17:28;;;;;;;3.15;2.38;;;;;;;;;;5015088;28;20072;-48
2022/08/22 09:20:03;;;;;;;4.80;2.50;;;21.50;99.90;;;;;;5019639;28;20038;-48
2022/08/22 09:22:38;;;;;;;4.63;2.72;;;21.60;99.90;;;;;;4986559;28;20053;-49
2022/08/22 09:25:49;;;;;;;5.07;2.42;;;21.60;99.90;;;;;;4989135;28;20043;-50
2022/08/22 09:28:42;;;;;;;4.90;2.65;;;21.70;99.90;;;;;;4933510;29;20085;-48
2022/08/22 09:31:44;;;;;;;4.68;2.65;;;21.80;99.90;;;;;;4932864;29;20078;-47
2022/08/22 09:34:38;;;;;;;6.68;2.65;;;21.70;99.90;;;;;;4922461;29;20048;-50
2022/08/22 09:37:25;;;;;;;4.28;2.60;;;21.60;99.90;;;;;;4840582;29;20041;-48
2022/08/22 09:39:59;;;;;;;3.28;2.30;;;21.70;99.90;;;;;;4836196;29;20494;-48
2022/08/22 09:42:44;;;;;;;5.93;2.80;;;21.60;99.90;;;;;;4840332;29;20041;-48
2022/08/22 09:45:33;;;;;;;4.90;2.55;;;21.70;99.90;;;;;;4836015;29;20050;-48
2022/08/22 09:48:35;;;;;;;3.55;2.05;;;21.50;99.90;;;;;;4827398;29;20041;-50
2022/08/22 09:51:13;;;;;;;3.08;2.60;;;21.80;99.90;;;;;;4822712;29;20380;-48
2022/08/22 09:53:47;;;;;;;3.30;2.50;;;22.10;99.90;;;;;;4840630;29;20125;-48
2022/08/22 09:56:25;;;;;;;4.32;2.83;;;22.30;99.90;;;;;;4840261;29;20030;-48
2022/08/22 09:59:01;;;;;;;4.65;2.65;;;22.60;99.90;;;;;;4849550;29;20128;-48
2022/08/22 10:01:30;;;;;;;4.18;2.60;;;;;;;;;;4895012;29;20036;-49
2022/08/22 10:04:08;;;;;;;4.03;2.47;;;;;;;;;;4898832;29;20084;-49
2022/08/22 10:06:56;;;;;;;6.85;2.65;;;;;;;;;;4923300;29;20034;-49
2022/08/22 10:09:25;;;;;;;3.13;2.70;;;;;;;;;;4929005;29;20567;-48
2022/08/22 10:12:11;;;;;;;3.10;2.80;;;23.50;99.90;;;;;;4908779;29;20152;-48
2022/08/22 10:15:19;;;;;;;3.05;2.40;;;23.40;99.90;;;;;;5005182;28;20498;-49
2022/08/22 10:18:16;;;;;;;6.13;2.50;;;23.70;99.90;;;;;;5031197;28;20036;-49
2022/08/22 10:20:53;;;;;;;3.75;2.25;;;23.70;99.90;;;;;;5022418;28;20029;-49
2022/08/22 10:23:34;;;;;;;3.97;2.58;;;;;;;;;;5019880;28;20029;-49
2022/08/22 10:26:21;;;;;;;3.45;3.05;;;23.90;99.90;;;;;;5026406;28;20461;-50
2022/08/22 10:28:47;;;;;;;2.80;2.50;;;;;;;;;;5028365;28;20038;-51
2022/08/22 10:31:36;;;;;;;4.00;2.42;;;23.90;99.90;;;;;;5017951;28;20133;-51
2022/08/22 10:34:18;;;;;;;5.80;3.00;;;23.80;99.90;;;;;;5024915;28;20038;-51
2022/08/22 10:36:55;;;;;;;4.70;2.88;;;23.70;99.90;;;;;;5024934;28;20366;-51
2022/08/22 10:39:25;;;;;;;4.03;3.13;;;23.80;99.90;;;;;;5024925;28;20034;-51
2022/08/22 10:42:08;;;;;;;6.53;3.30;;;24.00;99.90;;;;;;5023995;28;20589;-50
2022/08/22 10:45:01;;;;;;;4.82;3.00;;;24.00;99.90;;;;;;5017896;28;20083;-50
2022/08/22 10:47:38;;;;;;;11.05;3.55;;;24.20;99.90;;;;;;4954802;28;20070;-51
2022/08/22 10:50:32;;;;;;;6.32;3.65;;;24.20;99.90;;;;;;4970997;28;20121;-51
2022/08/22 10:53:29;;;;;;;7.78;3.40;;;24.40;99.90;;;;;;4971257;28;20391;-50
2022/08/22 10:55:57;;;;;;;4.65;3.40;;;;;;;;;;4971071;28;20043;-51
2022/08/22 10:58:29;;;;;;;4.20;3.35;;;;;;;;;;4970873;28;20542;-51
2022/08/22 11:00:59;;;;;;;4.15;3.35;;;25.80;99.90;;;;;;4951721;28;20475;-51
2022/08/22 11:04:03;;;;;;;6.35;4.10;;;25.50;99.90;;;;;;4951731;28;20051;-51
2022/08/22 11:06:44;;;;;;;6.75;3.63;;;25.30;99.90;;;;;;4949306;29;20042;-50
2022/08/22 11:09:22;;;;;;;4.72;3.80;;;25.30;99.90;;;;;;4951668;28;20200;-51
2022/08/22 11:12:09;;;;;;;6.00;4.00;;;25.00;99.90;;;;;;4935474;29;20066;-50
2022/08/22 11:15:19;;;;;;;6.30;4.20;;;25.00;99.90;;;;;;4951383;28;20518;-52
2022/08/22 11:18:06;;;;;;;5.95;4.13;;;24.80;99.90;;;;;;4894626;29;20055;-51
2022/08/22 11:20:46;;;;;;;3.88;3.13;;;24.80;99.90;;;;;;4874768;29;20043;-50
2022/08/22 11:23:47;;;;;;;3.90;3.40;;;24.70;99.90;;;;;;4895059;29;20085;-51
2022/08/22 11:26:42;;;;;;;5.80;3.80;;;25.10;99.90;;;;;;4890835;29;20044;-51
2022/08/22 11:29:33;;;;;;;6.82;4.97;;;25.30;99.90;;;;;;4892537;29;20044;-50
2022/08/22 11:33:02;;;;;;;8.23;5.82;;;25.30;99.90;;;;;;4894204;29;20512;-50
2022/08/22 11:35:41;;;;;;;8.45;6.60;;;25.30;99.90;;;;;;4891731;29;20051;-50
2022/08/22 11:38:15;;;;;;;8.90;8.00;;;25.80;99.90;;;;;;4894733;29;20033;-50
2022/08/22 11:40:47;;;;;;;7.95;6.47;;;;;;;;;;4893948;29;20044;-51
2022/08/22 11:43:47;;;;;;;9.68;8.77;;;26.20;99.90;;;;;;4893977;29;20048;-50
2022/08/22 11:46:17;;;;;;;9.25;8.35;;;25.90;99.90;;;;;;4887667;29;20092;-51
2022/08/22 11:48:43;;;;;;;14.50;9.43;;;;;;;;;;4890677;29;20272;-50
2022/08/22 11:51:28;;;;;;;8.75;6.57;;;;;;;;;;4894066;29;20453;-50
2022/08/22 11:54:24;;;;;;;6.88;6.07;;;26.30;99.90;;;;;;4954051;28;20047;-49
2022/08/22 11:57:00;;;;;;;4.43;4.03;;;;;;;;;;4968929;28;20035;-52
2022/08/22 11:59:41;;;;;;;4.60;3.80;;;26.50;99.90;;;;;;4960926;28;20446;-50
2022/08/22 12:02:17;;;;;;;5.63;4.10;;;26.70;99.90;;;;;;4969493;28;20043;-51
2022/08/22 12:04:53;;;;;;;7.38;4.85;;;27.00;99.90;;;;;;5011591;28;20768;-50
2022/08/22 12:07:30;;;;;;;5.72;5.00;;;;;;;;;;5029268;28;20575;-50
2022/08/22 12:10:02;;;;;;;6.40;5.10;;;27.60;99.90;;;;;;5028274;28;20485;-50
2022/08/22 12:13:09;;;;;;;7.43;5.13;;;27.60;99.90;;;;;;5028834;28;21106;-51
2022/08/22 12:16:00;;;;;;;6.32;5.15;;;27.50;99.90;;;;;;4969999;28;20391;-49
2022/08/22 12:18:53;;;;;;;8.70;6.10;;;27.70;99.90;;;;;;4958622;28;20122;-50
2022/08/22 12:21:27;;;;;;;6.20;5.10;;;27.60;99.90;;;;;;4958763;28;20039;-51
2022/08/22 12:24:31;;;;;;;5.85;5.25;;;27.50;99.90;;;;;;4960697;28;20422;-51
2022/08/22 12:27:39;;;;;;;9.63;5.20;;;27.50;99.90;;;;;;4935360;28;20256;-49
2022/08/22 12:30:16;;;;;;;8.35;6.38;;;27.80;99.90;;;;;;4962925;28;20067;-51
2022/08/22 12:32:52;;;;;;;6.93;4.90;;;;;;;;;;4968253;28;20043;-49
2022/08/22 12:35:20;;;;;;;6.88;4.80;;;28.40;99.90;;;;;;4931971;29;20387;-51
2022/08/22 12:38:16;;;;;;;6.70;4.70;;;28.00;99.90;;;;;;4925511;29;20211;-50
2022/08/22 12:41:12;;;;;;;5.88;5.15;;;27.90;99.90;;;;;;4930268;29;20593;-51
2022/08/22 12:43:57;;;;;;;4.00;3.42;;;;;;;;;;4929430;29;20119;-51
2022/08/22 12:46:42;;;;;;;4.47;4.00;;;28.10;99.90;;;;;;4927808;29;20044;-49
2022/08/22 12:49:29;;;;;;;5.30;4.20;;;28.10;99.90;;;;;;4929933;29;20046;-52
2022/08/22 12:52:16;;;;;;;5.72;4.68;;;28.20;99.90;;;;;;4958050;28;20498;-49
2022/08/22 12:55:06;;;;;;;4.68;4.22;;;28.90;99.90;;;;;;5025382;28;20032;-49
2022/08/22 12:57:59;;;;;;;2.58;2.38;;;29.10;99.90;;;;;;5035030;28;20098;-48
2022/08/22 13:00:35;;;;;;;4.05;3.33;;;29.10;99.90;;;;;;5032860;28;20049;-51
2022/08/22 13:03:06;;;;;;;4.95;3.35;;;28.20;99.90;;;;;;4989602;28;20037;-51
2022/08/22 13:05:34;;;;;;;4.82;3.22;;;28.10;99.90;;;;;;5033384;28;20033;-49
2022/08/22 13:08:03;;;;;;;3.90;3.20;;;27.80;99.90;;;;;;4996965;28;20065;-50
2022/08/22 13:10:44;;;;;;;3.03;2.35;;;28.30;99.90;;;;;;5033930;28;21488;-49
2022/08/22 13:13:14;;;;;;;2.63;1.65;;;28.60;99.90;;;;;;5013732;28;20041;-51
2022/08/22 13:15:52;;;;;;;3.28;2.30;;;28.60;99.90;;;;;;5030032;28;20033;-52
2022/08/22 13:18:24;;;;;;;2.95;2.65;;;28.40;99.90;;;;;;5032895;28;20029;-51
2022/08/22 13:20:53;;;;;;;3.00;2.33;;;28.20;99.90;;;;;;4989257;28;20051;-51
2022/08/22 13:23:27;;;;;;;3.42;3.03;;;27.80;99.90;;;;;;4989183;28;20029;-50
2022/08/22 13:26:40;;;;;;;4.60;2.55;;;27.50;99.90;;;;;;4990704;28;20050;-49
2022/08/22 13:29:20;;;;;;;2.10;1.83;;;27.80;99.90;;;;;;4932459;29;20063;-52
2022/08/22 13:31:52;;;;;;;4.50;2.35;;;27.80;99.90;;;;;;4932168;29;20040;-51
2022/08/22 13:34:38;;;;;;;2.58;2.38;;;28.10;99.90;;;;;;4895114;29;20048;-51
2022/08/22 13:37:10;;;;;;;3.13;2.17;;;28.50;99.90;;;;;;4895831;29;20165;-49
2022/08/22 13:39:41;;;;;;;3.08;2.50;;;28.00;99.90;;;;;;4896188;29;20032;-54
2022/08/22 13:42:14;;;;;;;2.75;2.53;;;27.70;99.90;;;;;;4896488;29;20123;-49
2022/08/22 13:44:44;;;;;;;3.50;2.80;;;27.30;99.90;;;;;;4894311;29;20044;-50
2022/08/22 13:47:20;;;;;;;2.97;2.67;;;27.80;99.90;;;;;;4893135;29;20047;-49
2022/08/22 13:50:02;;;;;;;4.97;2.60;;;28.60;99.90;;;;;;4895768;29;20055;-49
2022/08/22 13:52:46;;;;;;;3.45;3.15;;;28.70;99.90;;;;;;4904287;29;20727;-49
2022/08/22 13:55:17;;;;;;;4.45;3.92;;;28.80;99.90;;;;;;4926809;29;20476;-49
2022/08/22 13:57:58;;;;;;;5.63;4.55;;;28.50;99.90;;;;;;4916142;29;20040;-49
2022/08/22 14:01:05;;;;;;;4.65;3.97;;;28.50;99.90;;;;;;4967087;28;20043;-49
2022/08/22 14:03:57;;;;;;;6.15;5.07;;;28.50;99.90;;;;;;4911103;29;20040;-49
2022/08/22 14:06:34;;;;;;;;;;;28.30;99.90;;;;;;5019625;28;20537;-49
2022/08/22 14:09:38;;;;;;;4.47;3.47;;;28.70;99.90;;;;;;5033023;28;19925;-49
2022/08/22 14:12:07;;;;;;;5.72;3.90;;;27.90;99.90;;;;;;4953084;29;20499;-49